Historical Weather Data
Okotoks
Hwy 2A and Milligan Dr

Date
ET inches
Rain inches
Temperature °C
Humidity
Avg
Wind kmh
Avg
Solar Wm2
Avg
High
Avg
Low
02/01/2021 0.03 0.00 10.2 0.8 -8.7 67 0.0 81
02/02/2021 0.01 0.00 -4.8 -10.7 -14.2 88 0.0 76
02/03/2021 0.01 0.00 -8.9 -15.7 -22.2 81 0.0 46
02/04/2021 0.01 0.00 -0.5 -10.3 -22.6 81 0.0 55
02/05/2021 0.00 0.00 -7.4 -15.9 -21.5 87 0.0 44
02/06/2021 0.01 0.00 -20.6 -22.3 -23.8 79 0.0 75
02/07/2021 0.01 0.00 -21.4 -26.3 -31.0 76 0.0 93
02/08/2021 0.01 0.00 -21.6 -27.0 -35.4 72 0.0 101
02/09/2021 0.01 0.00 -18.9 -29.4 -34.0 67 0.0 105
02/10/2021 0.01 0.00 -21.6 -28.7 -35.4 66 0.0 120
02/11/2021 0.01 0.00 -20.8 -31.4 -37.6 65 0.0 101
02/12/2021 0.01 0.00 -13.6 -22.3 -33.1 72 0.0 103
02/13/2021 0.01 0.00 -17.5 -22.4 -31.1 76 0.0 120
02/14/2021 0.01 0.00 -19.5 -26.0 -33.0 76 0.0 109
02/15/2021 0.01 0.00 -12.1 -23.0 -29.8 73 0.0 122
02/16/2021 0.02 0.00 2.2 -12.9 -26.7 80 0.0 110
02/17/2021 0.02 0.00 -5.8 -9.9 -14.0 71 0.0 75
02/18/2021 0.03 0.00 -1.0 -10.7 -19.5 67 0.0 126
02/19/2021 0.03 0.00 6.4 -3.5 -10.1 49 0.0 124
02/20/2021 0.04 0.00 4.0 -3.7 -12.5 42 0.0 134
02/21/2021 0.03 0.00 7.2 1.3 -8.5 50 0.0 81
02/22/2021 0.04 0.00 9.6 2.2 -3.8 68 0.0 121
02/23/2021 0.03 0.00 1.9 -3.2 -8.9 73 0.0 102
02/24/2021 0.04 0.00 3.5 -6.2 -13.1 58 0.0 143
02/25/2021 0.04 0.00 8.3 -0.5 -6.1 40 0.0 133
02/26/2021 0.02 0.00 -1.8 -7.2 -13.4 70 0.0 97
02/27/2021 0.02 0.00 -5.1 -11.4 -17.1 80 0.0 114
02/28/2021 0.04 0.00 7.4 -3.3 -12.8 61 0.0 139